QNT415 UZTT-UZNU
Flight info
| Callsign | QNT415 |
|---|---|
| Flight time | N/A |
| Altitude | 34000 |
| Route | DIBAD N193 LAPZE Y720 DIKNA |
| Aircraft | A21N/M-SDE3FGHIRWY/LB1 |
Departure
| Time | 2026-04-14 10:42 |
|---|---|
| Airport | Tashkent International Airport (UZTT) |
Arrival
| Time | N/A |
|---|---|
| Airport | UZNU |
| Time | Latitude | Longitude | Altitude | Speed | Heading |
|---|---|---|---|---|---|
| 2026-04-14 10:05 | 41.26309 | 69.27320 | 1422 ft | 0 kts | 352° |
| 2026-04-14 10:30 | 41.26312 | 69.27319 | 1422 ft | 1 kts | 352° |
| 2026-04-14 10:31 | 41.26326 | 69.27317 | 1422 ft | 2 kts | 347° |
| 2026-04-14 10:31 | 41.26342 | 69.27305 | 1422 ft | 2 kts | 307° |
| 2026-04-14 10:31 | 41.26342 | 69.27275 | 1422 ft | 3 kts | 260° |
| 2026-04-14 10:31 | 41.26337 | 69.27237 | 1422 ft | 4 kts | 260° |
| 2026-04-14 10:32 | 41.26331 | 69.27190 | 1422 ft | 5 kts | 265° |
| 2026-04-14 10:32 | 41.26328 | 69.27138 | 1422 ft | 6 kts | 263° |
| 2026-04-14 10:32 | 41.26323 | 69.27078 | 1422 ft | 6 kts | 263° |
| 2026-04-14 10:32 | 41.26315 | 69.27013 | 1422 ft | 7 kts | 247° |
| 2026-04-14 10:33 | 41.26269 | 69.26995 | 1422 ft | 8 kts | 176° |
| 2026-04-14 10:33 | 41.26224 | 69.27020 | 1422 ft | 7 kts | 118° |
| 2026-04-14 10:33 | 41.26195 | 69.27080 | 1422 ft | 8 kts | 132° |
| 2026-04-14 10:33 | 41.26152 | 69.27135 | 1422 ft | 8 kts | 137° |
| 2026-04-14 10:34 | 41.26091 | 69.27206 | 1422 ft | 5 kts | 139° |
| 2026-04-14 10:34 | 41.26068 | 69.27246 | 1422 ft | 5 kts | 101° |
| 2026-04-14 10:34 | 41.26071 | 69.27306 | 1422 ft | 6 kts | 82° |
| 2026-04-14 10:35 | 41.26079 | 69.27376 | 1422 ft | 7 kts | 82° |
| 2026-04-14 10:35 | 41.26087 | 69.27452 | 1422 ft | 8 kts | 82° |
| 2026-04-14 10:35 | 41.26096 | 69.27536 | 1422 ft | 9 kts | 81° |
| 2026-04-14 10:35 | 41.26105 | 69.27628 | 1422 ft | 10 kts | 82° |
| 2026-04-14 10:36 | 41.26115 | 69.27725 | 1422 ft | 11 kts | 82° |
| 2026-04-14 10:36 | 41.26128 | 69.27837 | 1422 ft | 12 kts | 77° |
| 2026-04-14 10:36 | 41.26143 | 69.27950 | 1422 ft | 12 kts | 81° |
| 2026-04-14 10:36 | 41.26156 | 69.28069 | 1422 ft | 12 kts | 82° |
| 2026-04-14 10:37 | 41.26167 | 69.28189 | 1422 ft | 13 kts | 84° |
| 2026-04-14 10:37 | 41.26176 | 69.28313 | 1422 ft | 13 kts | 85° |
| 2026-04-14 10:37 | 41.26185 | 69.28439 | 1423 ft | 14 kts | 83° |
| 2026-04-14 10:37 | 41.26184 | 69.28608 | 1423 ft | 19 kts | 93° |
| 2026-04-14 10:38 | 41.26182 | 69.28786 | 1423 ft | 18 kts | 86° |
| 2026-04-14 10:38 | 41.26189 | 69.28958 | 1423 ft | 18 kts | 86° |
| 2026-04-14 10:38 | 41.26196 | 69.29128 | 1423 ft | 18 kts | 86° |
| 2026-04-14 10:38 | 41.26202 | 69.29308 | 1423 ft | 20 kts | 86° |
| 2026-04-14 10:39 | 41.26210 | 69.29508 | 1423 ft | 22 kts | 87° |
| 2026-04-14 10:39 | 41.26218 | 69.29720 | 1423 ft | 21 kts | 86° |
| 2026-04-14 10:39 | 41.26226 | 69.29907 | 1423 ft | 12 kts | 86° |
| 2026-04-14 10:39 | 41.26205 | 69.29999 | 1423 ft | 8 kts | 137° |
| 2026-04-14 10:40 | 41.26194 | 69.30012 | 1423 ft | 0 kts | 141° |
| 2026-04-14 10:40 | 41.26185 | 69.30022 | 1423 ft | 2 kts | 141° |
| 2026-04-14 10:40 | 41.26149 | 69.30058 | 1423 ft | 8 kts | 141° |
| 2026-04-14 10:41 | 41.26091 | 69.30083 | 1423 ft | 9 kts | 193° |
| 2026-04-14 10:41 | 41.26055 | 69.30015 | 1423 ft | 9 kts | 260° |
| 2026-04-14 10:41 | 41.26054 | 69.30005 | 1423 ft | 0 kts | 261° |
| 2026-04-14 10:41 | 41.26047 | 69.29948 | 1423 ft | 33 kts | 260° |
| 2026-04-14 10:42 | 41.25972 | 69.29263 | 1423 ft | 115 kts | 263° |
| 2026-04-14 10:42 | 41.25818 | 69.27893 | 1423 ft | 181 kts | 261° |
| 2026-04-14 10:42 | 41.25624 | 69.26095 | 1841 ft | 205 kts | 261° |
| 2026-04-14 10:42 | 41.25426 | 69.24246 | 2782 ft | 205 kts | 262° |
| 2026-04-14 10:43 | 41.25229 | 69.22420 | 3777 ft | 196 kts | 262° |
| 2026-04-14 10:43 | 41.25042 | 69.20693 | 4515 ft | 193 kts | 261° |
| 2026-04-14 10:43 | 41.24836 | 69.18866 | 4948 ft | 208 kts | 261° |
| 2026-04-14 10:43 | 41.24611 | 69.16877 | 5379 ft | 225 kts | 261° |
| 2026-04-14 10:44 | 41.24372 | 69.14752 | 5799 ft | 244 kts | 261° |
| 2026-04-14 10:44 | 41.24112 | 69.12424 | 6284 ft | 261 kts | 260° |
| 2026-04-14 10:44 | 41.23850 | 69.10051 | 6775 ft | 260 kts | 260° |
| 2026-04-14 10:44 | 41.23586 | 69.07687 | 7007 ft | 265 kts | 260° |
| 2026-04-14 10:45 | 41.23296 | 69.05173 | 7016 ft | 279 kts | 260° |
| 2026-04-14 10:45 | 41.23000 | 69.02628 | 7019 ft | 281 kts | 260° |
| 2026-04-14 10:45 | 41.22704 | 69.00069 | 7017 ft | 281 kts | 260° |
| 2026-04-14 10:45 | 41.22406 | 68.97506 | 7016 ft | 281 kts | 260° |
| 2026-04-14 10:46 | 41.22109 | 68.94939 | 7014 ft | 280 kts | 260° |
| 2026-04-14 10:46 | 41.21811 | 68.92386 | 7013 ft | 280 kts | 260° |
| 2026-04-14 10:46 | 41.21514 | 68.89847 | 7010 ft | 280 kts | 260° |
| 2026-04-14 10:46 | 41.21284 | 68.87260 | 7006 ft | 281 kts | 266° |
| 2026-04-14 10:47 | 41.21305 | 68.84673 | 7062 ft | 285 kts | 273° |
| 2026-04-14 10:47 | 41.21500 | 68.82017 | 7642 ft | 291 kts | 275° |
| 2026-04-14 10:47 | 41.21719 | 68.79394 | 8667 ft | 286 kts | 275° |
| 2026-04-14 10:47 | 41.21934 | 68.76811 | 9604 ft | 284 kts | 275° |
| 2026-04-14 10:48 | 41.22148 | 68.74217 | 10430 ft | 286 kts | 275° |
| 2026-04-14 10:48 | 41.22366 | 68.71522 | 10915 ft | 301 kts | 275° |
| 2026-04-14 10:48 | 41.22591 | 68.68693 | 11278 ft | 318 kts | 275° |
| 2026-04-14 10:48 | 41.22829 | 68.65698 | 11618 ft | 336 kts | 275° |
| 2026-04-14 10:49 | 41.23077 | 68.62550 | 11956 ft | 353 kts | 275° |
| 2026-04-14 10:49 | 41.23335 | 68.59296 | 12548 ft | 360 kts | 275° |
| 2026-04-14 10:49 | 41.23597 | 68.55993 | 13317 ft | 362 kts | 275° |
| 2026-04-14 10:49 | 41.23862 | 68.52626 | 14028 ft | 366 kts | 275° |
| 2026-04-14 10:50 | 41.24125 | 68.49262 | 14688 ft | 370 kts | 275° |
| 2026-04-14 10:50 | 41.24389 | 68.45867 | 15343 ft | 374 kts | 275° |
| 2026-04-14 10:50 | 41.24654 | 68.42448 | 15992 ft | 378 kts | 275° |
| 2026-04-14 10:50 | 41.24921 | 68.38980 | 16640 ft | 381 kts | 275° |
| 2026-04-14 10:51 | 41.25192 | 68.35454 | 17298 ft | 384 kts | 275° |
| 2026-04-14 10:51 | 41.25467 | 68.31848 | 17945 ft | 387 kts | 274° |
| 2026-04-14 10:51 | 41.25740 | 68.28260 | 18547 ft | 390 kts | 274° |
| 2026-04-14 10:51 | 41.26012 | 68.24667 | 19126 ft | 394 kts | 274° |
| 2026-04-14 10:52 | 41.26286 | 68.21043 | 19652 ft | 399 kts | 274° |
| 2026-04-14 10:52 | 41.26559 | 68.17386 | 19915 ft | 401 kts | 274° |
| 2026-04-14 10:52 | 41.26834 | 68.13717 | 19926 ft | 400 kts | 274° |
| 2026-04-14 10:52 | 41.27111 | 68.10012 | 19928 ft | 401 kts | 274° |
| 2026-04-14 10:53 | 41.27385 | 68.06311 | 19927 ft | 400 kts | 274° |
| 2026-04-14 10:53 | 41.27657 | 68.02624 | 19929 ft | 399 kts | 274° |
| 2026-04-14 10:53 | 41.27928 | 67.98927 | 19928 ft | 399 kts | 274° |
| 2026-04-14 10:53 | 41.28214 | 67.95229 | 19927 ft | 400 kts | 275° |
| 2026-04-14 10:54 | 41.28633 | 67.91548 | 19938 ft | 403 kts | 278° |
| 2026-04-14 10:54 | 41.29183 | 67.87883 | 20244 ft | 409 kts | 280° |
| 2026-04-14 10:54 | 41.29763 | 67.84172 | 20920 ft | 409 kts | 280° |
| 2026-04-14 10:54 | 41.30345 | 67.80455 | 21532 ft | 410 kts | 280° |
| 2026-04-14 10:55 | 41.30923 | 67.76755 | 22047 ft | 414 kts | 280° |
| 2026-04-14 10:55 | 41.31510 | 67.72977 | 22543 ft | 417 kts | 280° |
| 2026-04-14 10:55 | 41.32092 | 67.69223 | 23050 ft | 420 kts | 280° |
| 2026-04-14 10:55 | 41.32681 | 67.65419 | 23547 ft | 422 kts | 280° |
| 2026-04-14 10:56 | 41.33270 | 67.61601 | 24020 ft | 425 kts | 280° |
| 2026-04-14 10:56 | 41.33859 | 67.57774 | 24502 ft | 427 kts | 280° |
| 2026-04-14 10:56 | 41.34450 | 67.53919 | 24974 ft | 429 kts | 280° |
| 2026-04-14 10:56 | 41.35051 | 67.49994 | 25413 ft | 431 kts | 280° |
| 2026-04-14 10:57 | 41.35645 | 67.46099 | 25810 ft | 434 kts | 280° |
| 2026-04-14 10:57 | 41.36243 | 67.42166 | 26201 ft | 436 kts | 280° |
| 2026-04-14 10:57 | 41.36837 | 67.38254 | 26588 ft | 437 kts | 280° |
| 2026-04-14 10:57 | 41.37446 | 67.34235 | 26968 ft | 439 kts | 279° |
| 2026-04-14 10:58 | 41.38043 | 67.30284 | 27315 ft | 441 kts | 279° |
| 2026-04-14 10:58 | 41.38652 | 67.26247 | 27733 ft | 442 kts | 279° |
| 2026-04-14 10:58 | 41.39248 | 67.22276 | 28247 ft | 440 kts | 279° |
| 2026-04-14 10:58 | 41.39846 | 67.18292 | 28750 ft | 438 kts | 279° |
| 2026-04-14 10:59 | 41.40433 | 67.14366 | 29227 ft | 436 kts | 279° |
| 2026-04-14 10:59 | 41.41018 | 67.10444 | 29703 ft | 434 kts | 279° |
| 2026-04-14 10:59 | 41.41600 | 67.06530 | 30157 ft | 433 kts | 279° |
| 2026-04-14 10:59 | 41.42186 | 67.02590 | 30611 ft | 431 kts | 279° |
| 2026-04-14 11:00 | 41.42761 | 66.98707 | 31038 ft | 429 kts | 279° |
| 2026-04-14 11:00 | 41.43333 | 66.94833 | 31416 ft | 428 kts | 278° |
| 2026-04-14 11:00 | 41.43906 | 66.90949 | 31775 ft | 428 kts | 278° |
| 2026-04-14 11:00 | 41.44478 | 66.87051 | 32116 ft | 427 kts | 278° |
| 2026-04-14 11:01 | 41.45041 | 66.83214 | 32415 ft | 428 kts | 278° |
| 2026-04-14 11:01 | 41.45610 | 66.79321 | 32687 ft | 428 kts | 278° |
| 2026-04-14 11:01 | 41.46173 | 66.75455 | 32940 ft | 429 kts | 278° |
| 2026-04-14 11:01 | 41.46746 | 66.71515 | 33164 ft | 431 kts | 278° |
| 2026-04-14 11:02 | 41.47312 | 66.67609 | 33386 ft | 432 kts | 278° |
| 2026-04-14 11:02 | 41.47878 | 66.63690 | 33619 ft | 432 kts | 278° |
| 2026-04-14 11:02 | 41.48444 | 66.59782 | 33830 ft | 433 kts | 278° |
| 2026-04-14 11:03 | 41.49606 | 66.51934 | 33918 ft | 434 kts | 278° |
| 2026-04-14 11:03 | 41.50777 | 66.44018 | 33918 ft | 434 kts | 278° |
| 2026-04-14 11:04 | 41.51930 | 66.36150 | 33914 ft | 435 kts | 278° |
| 2026-04-14 11:04 | 41.53080 | 66.28262 | 33914 ft | 435 kts | 278° |
| 2026-04-14 11:05 | 41.54235 | 66.20293 | 33914 ft | 436 kts | 277° |
| 2026-04-14 11:05 | 41.55375 | 66.12384 | 33911 ft | 436 kts | 277° |
| 2026-04-14 11:06 | 41.56507 | 66.04494 | 33912 ft | 436 kts | 278° |
| 2026-04-14 11:06 | 41.57642 | 65.96537 | 33911 ft | 436 kts | 277° |
| 2026-04-14 11:07 | 41.58764 | 65.88627 | 33908 ft | 436 kts | 277° |
| 2026-04-14 11:07 | 41.59892 | 65.80638 | 33915 ft | 437 kts | 277° |
| 2026-04-14 11:08 | 41.61013 | 65.72668 | 33914 ft | 437 kts | 277° |
| 2026-04-14 11:08 | 41.62125 | 65.64713 | 33914 ft | 438 kts | 277° |
| 2026-04-14 11:09 | 41.63234 | 65.56726 | 33912 ft | 437 kts | 277° |
| 2026-04-14 11:09 | 41.64336 | 65.48748 | 33910 ft | 437 kts | 277° |
| 2026-04-14 11:10 | 41.65987 | 65.36710 | 33909 ft | 438 kts | 277° |
| 2026-04-14 11:10 | 41.67077 | 65.28710 | 33907 ft | 438 kts | 277° |
| 2026-04-14 11:11 | 41.68164 | 65.20689 | 33901 ft | 438 kts | 277° |
| 2026-04-14 11:11 | 41.69235 | 65.12736 | 33900 ft | 438 kts | 277° |
| 2026-04-14 11:12 | 41.70308 | 65.04730 | 33902 ft | 439 kts | 277° |
| 2026-04-14 11:12 | 41.71373 | 64.96740 | 33901 ft | 438 kts | 277° |
| 2026-04-14 11:13 | 41.72436 | 64.88710 | 33904 ft | 439 kts | 277° |
| 2026-04-14 11:13 | 41.73493 | 64.80692 | 33906 ft | 440 kts | 277° |
| 2026-04-14 11:14 | 41.74543 | 64.72669 | 33908 ft | 441 kts | 277° |
| 2026-04-14 11:14 | 41.75476 | 64.64567 | 33904 ft | 439 kts | 273° |
| 2026-04-14 11:15 | 41.75790 | 64.56453 | 33897 ft | 436 kts | 267° |
| 2026-04-14 11:15 | 41.75594 | 64.48394 | 33890 ft | 436 kts | 265° |
| 2026-04-14 11:16 | 41.75349 | 64.40318 | 33888 ft | 437 kts | 265° |
| 2026-04-14 11:16 | 41.75098 | 64.32182 | 33888 ft | 437 kts | 264° |
| 2026-04-14 11:17 | 41.74847 | 64.24096 | 33887 ft | 436 kts | 264° |
| 2026-04-14 11:17 | 41.74589 | 64.16028 | 33884 ft | 437 kts | 264° |
| 2026-04-14 11:18 | 41.74325 | 64.07905 | 33881 ft | 437 kts | 264° |
| 2026-04-14 11:18 | 41.74057 | 63.99799 | 33880 ft | 438 kts | 264° |
| 2026-04-14 11:19 | 41.73780 | 63.91661 | 33879 ft | 438 kts | 264° |
| 2026-04-14 11:19 | 41.73500 | 63.83542 | 33874 ft | 438 kts | 264° |
| 2026-04-14 11:20 | 41.73214 | 63.75455 | 33872 ft | 438 kts | 264° |
| 2026-04-14 11:20 | 41.72921 | 63.67314 | 33874 ft | 438 kts | 264° |
| 2026-04-14 11:21 | 41.72624 | 63.59213 | 33871 ft | 437 kts | 264° |
| 2026-04-14 11:21 | 41.72316 | 63.51027 | 33868 ft | 438 kts | 264° |
| 2026-04-14 11:22 | 41.72008 | 63.42938 | 33858 ft | 437 kts | 264° |
| 2026-04-14 11:22 | 41.71692 | 63.34799 | 33856 ft | 437 kts | 263° |
| 2026-04-14 11:23 | 41.71372 | 63.26717 | 33531 ft | 436 kts | 263° |
| 2026-04-14 11:23 | 41.71211 | 63.22666 | 33271 ft | 434 kts | 263° |
| 2026-04-14 11:23 | 41.71046 | 63.18626 | 33014 ft | 431 kts | 263° |
| 2026-04-14 11:24 | 41.70885 | 63.14648 | 32758 ft | 429 kts | 263° |
| 2026-04-14 11:24 | 41.70721 | 63.10681 | 32497 ft | 428 kts | 263° |
| 2026-04-14 11:24 | 41.70554 | 63.06696 | 32239 ft | 430 kts | 263° |
| 2026-04-14 11:24 | 41.70385 | 63.02703 | 31907 ft | 431 kts | 263° |
| 2026-04-14 11:25 | 41.70216 | 62.98682 | 31465 ft | 431 kts | 263° |
| 2026-04-14 11:25 | 41.70047 | 62.94678 | 30835 ft | 434 kts | 263° |
| 2026-04-14 11:25 | 41.69875 | 62.90662 | 30030 ft | 437 kts | 263° |
| 2026-04-14 11:25 | 41.69701 | 62.86607 | 29183 ft | 441 kts | 263° |
| 2026-04-14 11:26 | 41.69522 | 62.82525 | 28379 ft | 443 kts | 263° |
| 2026-04-14 11:26 | 41.69343 | 62.78416 | 27603 ft | 444 kts | 263° |
| 2026-04-14 11:26 | 41.69162 | 62.74311 | 26825 ft | 444 kts | 263° |
| 2026-04-14 11:26 | 41.68980 | 62.70179 | 26345 ft | 438 kts | 263° |
| 2026-04-14 11:27 | 41.68801 | 62.66157 | 25877 ft | 435 kts | 263° |
| 2026-04-14 11:27 | 41.68621 | 62.62140 | 25375 ft | 431 kts | 263° |
| 2026-04-14 11:27 | 41.68442 | 62.58183 | 24860 ft | 427 kts | 263° |
| 2026-04-14 11:27 | 41.68261 | 62.54243 | 24339 ft | 424 kts | 263° |
| 2026-04-14 11:28 | 41.68082 | 62.50347 | 23840 ft | 420 kts | 263° |
| 2026-04-14 11:28 | 41.67902 | 62.46495 | 23350 ft | 416 kts | 263° |
| 2026-04-14 11:28 | 41.67723 | 62.42685 | 22841 ft | 413 kts | 263° |
| 2026-04-14 11:28 | 41.67542 | 62.38847 | 22345 ft | 409 kts | 263° |
| 2026-04-14 11:29 | 41.67364 | 62.35097 | 21826 ft | 406 kts | 263° |
| 2026-04-14 11:29 | 41.67185 | 62.31368 | 21326 ft | 403 kts | 263° |
| 2026-04-14 11:29 | 41.67005 | 62.27661 | 20803 ft | 400 kts | 263° |
| 2026-04-14 11:29 | 41.66826 | 62.23953 | 20296 ft | 397 kts | 262° |
| 2026-04-14 11:30 | 41.66648 | 62.20300 | 19778 ft | 395 kts | 262° |
| 2026-04-14 11:30 | 41.66469 | 62.16666 | 19253 ft | 393 kts | 262° |
| 2026-04-14 11:30 | 41.66291 | 62.13055 | 18737 ft | 391 kts | 262° |
| 2026-04-14 11:30 | 41.66111 | 62.09464 | 18232 ft | 389 kts | 262° |
| 2026-04-14 11:31 | 41.65931 | 62.05842 | 17713 ft | 387 kts | 262° |
| 2026-04-14 11:31 | 41.65750 | 62.02295 | 17219 ft | 385 kts | 262° |
| 2026-04-14 11:31 | 41.65568 | 61.98752 | 16706 ft | 383 kts | 262° |
| 2026-04-14 11:31 | 41.65388 | 61.95226 | 16189 ft | 383 kts | 263° |
| 2026-04-14 11:32 | 41.65204 | 61.91655 | 15633 ft | 382 kts | 263° |
| 2026-04-14 11:32 | 41.65023 | 61.88150 | 15075 ft | 382 kts | 263° |
| 2026-04-14 11:32 | 41.64839 | 61.84632 | 14539 ft | 381 kts | 263° |
| 2026-04-14 11:32 | 41.64656 | 61.81134 | 14008 ft | 380 kts | 263° |
| 2026-04-14 11:33 | 41.64439 | 61.77633 | 13429 ft | 376 kts | 260° |
| 2026-04-14 11:33 | 41.63966 | 61.74235 | 12897 ft | 370 kts | 253° |
| 2026-04-14 11:33 | 41.63204 | 61.70975 | 12359 ft | 368 kts | 247° |
| 2026-04-14 11:34 | 41.61381 | 61.64617 | 11284 ft | 367 kts | 246° |
| 2026-04-14 11:34 | 41.60453 | 61.61434 | 10818 ft | 363 kts | 246° |
| 2026-04-14 11:34 | 41.59559 | 61.58352 | 10496 ft | 349 kts | 246° |
| 2026-04-14 11:34 | 41.58711 | 61.55418 | 10319 ft | 330 kts | 246° |
| 2026-04-14 11:35 | 41.57904 | 61.52621 | 10197 ft | 316 kts | 246° |
| 2026-04-14 11:35 | 41.57126 | 61.49922 | 10104 ft | 303 kts | 246° |
| 2026-04-14 11:35 | 41.56383 | 61.47351 | 10009 ft | 291 kts | 246° |
| 2026-04-14 11:35 | 41.55660 | 61.44858 | 9803 ft | 286 kts | 246° |
| 2026-04-14 11:36 | 41.54943 | 61.42397 | 9430 ft | 287 kts | 246° |
| 2026-04-14 11:36 | 41.54224 | 61.39928 | 9079 ft | 286 kts | 246° |
| 2026-04-14 11:36 | 41.53500 | 61.37437 | 8752 ft | 285 kts | 246° |
| 2026-04-14 11:36 | 41.52792 | 61.34999 | 8425 ft | 283 kts | 246° |
| 2026-04-14 11:37 | 41.52085 | 61.32564 | 8121 ft | 280 kts | 245° |
| 2026-04-14 11:37 | 41.51376 | 61.30136 | 7811 ft | 278 kts | 246° |
| 2026-04-14 11:37 | 41.50676 | 61.27734 | 7490 ft | 276 kts | 246° |
| 2026-04-14 11:37 | 41.49994 | 61.25389 | 7175 ft | 275 kts | 246° |
| 2026-04-14 11:38 | 41.49303 | 61.23026 | 6845 ft | 273 kts | 246° |
| 2026-04-14 11:38 | 41.48609 | 61.20654 | 6537 ft | 271 kts | 246° |
| 2026-04-14 11:38 | 41.47932 | 61.18333 | 6229 ft | 268 kts | 246° |
| 2026-04-14 11:38 | 41.47262 | 61.16044 | 5973 ft | 264 kts | 247° |
| 2026-04-14 11:39 | 41.46594 | 61.13768 | 5699 ft | 262 kts | 247° |
| 2026-04-14 11:39 | 41.45929 | 61.11498 | 5420 ft | 259 kts | 247° |
| 2026-04-14 11:39 | 41.45282 | 61.09291 | 5120 ft | 254 kts | 248° |
| 2026-04-14 11:39 | 41.44638 | 61.07100 | 4829 ft | 247 kts | 248° |
| 2026-04-14 11:40 | 41.44006 | 61.04951 | 4592 ft | 241 kts | 248° |
| 2026-04-14 11:40 | 41.43402 | 61.02903 | 4290 ft | 234 kts | 248° |
| 2026-04-14 11:40 | 41.42811 | 61.00897 | 3954 ft | 234 kts | 249° |
| 2026-04-14 11:40 | 41.42212 | 60.98865 | 3677 ft | 230 kts | 249° |
| 2026-04-14 11:41 | 41.41637 | 60.96917 | 3588 ft | 218 kts | 250° |
| 2026-04-14 11:41 | 41.41131 | 60.95052 | 3555 ft | 214 kts | 258° |
| 2026-04-14 11:41 | 41.41113 | 60.93070 | 3492 ft | 215 kts | 279° |
| 2026-04-14 11:41 | 41.41447 | 60.91144 | 3372 ft | 210 kts | 281° |
| 2026-04-14 11:42 | 41.41787 | 60.89294 | 3277 ft | 199 kts | 281° |
| 2026-04-14 11:42 | 41.42105 | 60.87558 | 3204 ft | 189 kts | 281° |
| 2026-04-14 11:42 | 41.42412 | 60.85847 | 3147 ft | 190 kts | 280° |
| 2026-04-14 11:42 | 41.42719 | 60.84129 | 2841 ft | 188 kts | 280° |
| 2026-04-14 11:43 | 41.43080 | 60.82467 | 2523 ft | 188 kts | 290° |
| 2026-04-14 11:43 | 41.43811 | 60.81010 | 2282 ft | 191 kts | 304° |
| 2026-04-14 11:43 | 41.44757 | 60.79732 | 2268 ft | 195 kts | 311° |
| 2026-04-14 11:43 | 41.45792 | 60.78539 | 2266 ft | 195 kts | 313° |
| 2026-04-14 11:44 | 41.46829 | 60.77381 | 2262 ft | 195 kts | 313° |
| 2026-04-14 11:44 | 41.47857 | 60.76223 | 2258 ft | 191 kts | 313° |
| 2026-04-14 11:44 | 41.48820 | 60.75138 | 2228 ft | 168 kts | 311° |
| 2026-04-14 11:44 | 41.49653 | 60.74198 | 2213 ft | 146 kts | 310° |
| 2026-04-14 11:45 | 41.50385 | 60.73361 | 2050 ft | 132 kts | 309° |
| 2026-04-14 11:45 | 41.51065 | 60.72578 | 1870 ft | 129 kts | 308° |
| 2026-04-14 11:45 | 41.51742 | 60.71798 | 1711 ft | 128 kts | 308° |
| 2026-04-14 11:45 | 41.52419 | 60.71024 | 1546 ft | 128 kts | 308° |
| 2026-04-14 11:46 | 41.53091 | 60.70255 | 1385 ft | 129 kts | 309° |
| 2026-04-14 11:46 | 41.53778 | 60.69474 | 1220 ft | 130 kts | 310° |
| 2026-04-14 11:46 | 41.54474 | 60.68683 | 1048 ft | 130 kts | 309° |
| 2026-04-14 11:46 | 41.55159 | 60.67903 | 877 ft | 131 kts | 310° |
| 2026-04-14 11:47 | 41.55854 | 60.67113 | 703 ft | 131 kts | 309° |
| 2026-04-14 11:47 | 41.56550 | 60.66320 | 530 ft | 132 kts | 311° |
| 2026-04-14 11:47 | 41.57253 | 60.65520 | 384 ft | 132 kts | 310° |
| 2026-04-14 11:47 | 41.57910 | 60.64737 | 328 ft | 114 kts | 316° |
| 2026-04-14 11:48 | 41.58359 | 60.64169 | 328 ft | 64 kts | 332° |
| 2026-04-14 11:48 | 41.58631 | 60.63934 | 328 ft | 28 kts | 326° |
| 2026-04-14 11:48 | 41.58746 | 60.63805 | 328 ft | 14 kts | 303° |
| 2026-04-14 11:48 | 41.58736 | 60.63728 | 328 ft | 3 kts | 238° |
| 2026-04-14 11:49 | 41.58721 | 60.63695 | 328 ft | 4 kts | 238° |
| 2026-04-14 11:49 | 41.58702 | 60.63661 | 328 ft | 4 kts | 231° |
| 2026-04-14 11:49 | 41.58664 | 60.63601 | 328 ft | 14 kts | 230° |
| 2026-04-14 11:49 | 41.58623 | 60.63538 | 328 ft | 4 kts | 229° |
| 2026-04-14 11:50 | 41.58601 | 60.63526 | 328 ft | 3 kts | 174° |
| 2026-04-14 11:50 | 41.58580 | 60.63536 | 328 ft | 3 kts | 153° |
| 2026-04-14 11:50 | 41.58555 | 60.63557 | 328 ft | 4 kts | 156° |
| 2026-04-14 11:51 | 41.58524 | 60.63501 | 328 ft | 5 kts | 300° |
| 2026-04-14 11:51 | 41.58545 | 60.63472 | 328 ft | 3 kts | 320° |
| 2026-04-14 11:51 | 41.58547 | 60.63470 | 328 ft | 0 kts | 320° |